Погода Лакутинона неделю

Тверская область, Россия

23 - 29 мая
  • 23мая
    Сегодня
    +4°
    +20°
    Облачно с прояснениями
    ВремяПогодаТемператураВлажностьДавлениеВетер, м/сВероятность осадков
    00:00Ясно и безоблачно+6°C56 %755 мм0.8 м/с2 %
    03:00Практически безоблачно+5°C62 %756 мм0.9 м/с2 %
    06:00Ясно и безоблачно+8°C65 %757 мм0.1 м/с2 %
    09:00Ясно и безоблачно+14°C50 %757 мм0.8 м/с2 %
    12:00Ясно и безоблачно+17°C38 %758 мм0.8 м/с2 %
    15:00Облачно с прояснениями+19°C36 %757 мм0.0 м/с2 %
    18:00Практически безоблачно+19°C39 %757 мм0.6 м/с2 %
    21:00Практически безоблачно+12°C55 %757 мм1.3 м/с2 %
  • 24мая
    Пятница
    +8°
    +23°
    Ясно и безоблачно
    ВремяПогодаТемператураВлажностьДавлениеВетер, м/сВероятность осадков
    00:00Ясно и безоблачно+6°C66 %757 мм0.5 м/с2 %
    03:00Ясно и безоблачно+4°C80 %758 мм0.3 м/с2 %
    06:00Ясно и безоблачно+10°C68 %758 мм0.0 м/с2 %
    09:00Ясно и безоблачно+17°C53 %759 мм0.8 м/с2 %
    12:00Практически безоблачно+22°C38 %759 мм1.4 м/с2 %
    15:00Ясно и безоблачно+23°C33 %758 мм1.1 м/с2 %
    18:00Ясно и безоблачно+22°C33 %757 мм1.2 м/с2 %
    21:00Ясно и безоблачно+16°C51 %756 мм1.3 м/с2 %
  • 25мая
    Суббота
    +10°
    +23°
    Ясно и безоблачно
    ВремяПогодаТемператураВлажностьДавлениеВетер, м/сВероятность осадков
    00:00Ясно и безоблачно+10°C55 %756 мм1.6 м/с2 %
    03:00Ясно и безоблачно+8°C61 %757 мм1.4 м/с2 %
    06:00Ясно и безоблачно+11°C64 %757 мм1.3 м/с2 %
    09:00Ясно и безоблачно+18°C43 %756 мм2.2 м/с2 %
    12:00Ясно и безоблачно+21°C31 %755 мм3.6 м/с2 %
    15:00Ясно и безоблачно+23°C30 %754 мм3.6 м/с2 %
    18:00Ясно и безоблачно+22°C35 %753 мм2.7 м/с2 %
    21:00Ясно и безоблачно+16°C47 %752 мм1.4 м/с3 %
  • 26мая
    Воскресенье
    +4°
    +20°
    Облачно с прояснениями
    ВремяПогодаТемператураВлажностьДавлениеВетер, м/сВероятность осадков
    00:00Практически безоблачно+12°C60 %752 мм1.0 м/с4 %
    03:00Небольшая облачность+11°C80 %752 мм0.5 м/с7 %
    06:00Пасмурно, дождь+13°C93 %753 мм0.6 м/с31 %
    09:00Облачно с прояснениями+16°C65 %754 мм1.4 м/с46 %
    12:00Облачно с прояснениями+17°C50 %754 мм2.5 м/с31 %
    15:00Облачно с прояснениями+19°C44 %755 мм2.2 м/с15 %
    18:00Облачно с прояснениями+18°C43 %755 мм2.0 м/с5 %
    21:00Ясно и безоблачно+12°C55 %756 мм0.8 м/с2 %
  • 27мая
    Понедельник
    +6°
    +20°
    Небольшая облачность
    ВремяПогодаТемператураВлажностьДавлениеВетер, м/сВероятность осадков
    00:00Ясно и безоблачно+5°C61 %757 мм0.8 м/с2 %
    03:00Ясно и безоблачно+4°C63 %757 мм0.7 м/с2 %
    06:00Ясно и безоблачно+8°C63 %759 мм0.3 м/с2 %
    09:00Ясно и безоблачно+15°C41 %759 мм0.8 м/с2 %
    12:00Небольшая облачность+17°C36 %759 мм1.3 м/с2 %
    15:00Небольшая облачность+20°C35 %758 мм0.8 м/с2 %
    18:00Ясно и безоблачно+19°C36 %757 мм0.6 м/с2 %
    21:00Ясно и безоблачно+13°C57 %757 мм0.9 м/с2 %
Мы используем cookies
Соглашаюсь